createdAt,value
2023-11-05T00:02:07.221Z,3.28
2023-11-05T00:05:14.597Z,3.60
2023-11-05T00:08:18.706Z,3.55
2023-11-05T00:11:24.068Z,3.67
2023-11-05T00:14:27.726Z,3.83
2023-11-05T00:17:31.400Z,3.90
2023-11-05T00:20:35.094Z,4.20
2023-11-05T00:23:39.076Z,4.50
2023-11-05T00:26:44.031Z,4.85
2023-11-05T00:29:47.674Z,4.72
2023-11-05T00:32:51.625Z,4.50
2023-11-05T00:35:55.383Z,5.15
2023-11-05T00:38:59.085Z,4.95
2023-11-05T00:42:04.101Z,4.53
2023-11-05T00:45:09.011Z,4.95
2023-11-05T00:48:13.021Z,4.70
2023-11-05T00:51:16.626Z,4.78
2023-11-05T00:54:20.263Z,4.55
2023-11-05T00:57:25.368Z,4.50
2023-11-05T01:00:29.493Z,4.70
2023-11-05T01:03:33.847Z,4.93
2023-11-05T01:06:38.832Z,5.50
2023-11-05T01:09:42.805Z,5.25
2023-11-05T01:12:48.018Z,4.40
2023-11-05T01:15:51.663Z,4.38
2023-11-05T01:18:55.604Z,5.05
2023-11-05T01:21:59.466Z,4.32
2023-11-05T01:25:03.711Z,4.45
2023-11-05T01:28:08.737Z,4.07
2023-11-05T01:31:12.385Z,4.53
2023-11-05T01:34:16.327Z,4.63
2023-11-05T01:37:20.100Z,4.45
2023-11-05T01:40:24.167Z,3.80
2023-11-05T01:43:29.976Z,4.05
2023-11-05T01:46:33.804Z,4.22
2023-11-05T01:49:37.527Z,3.35
2023-11-05T01:52:41.253Z,3.60
2023-11-05T01:55:44.892Z,3.20
2023-11-05T01:58:50.969Z,3.47
2023-11-05T02:01:55.174Z,3.25
2023-11-05T02:04:59.956Z,3.17
2023-11-05T02:08:03.712Z,3.20
2023-11-05T02:11:08.190Z,3.38
2023-11-05T02:14:15.463Z,3.05
2023-11-05T02:17:19.070Z,3.40
2023-11-05T02:20:23.546Z,3.28
2023-11-05T02:23:29.154Z,3.03
2023-11-05T02:26:33.004Z,3.17
2023-11-05T02:29:36.781Z,3.30
2023-11-05T02:32:40.431Z,3.17
2023-11-05T02:35:44.669Z,2.60
2023-11-05T02:38:49.854Z,3.10
2023-11-05T02:41:53.485Z,3.10
2023-11-05T02:44:57.099Z,2.60
2023-11-05T02:48:00.839Z,2.72
2023-11-05T02:51:04.794Z,2.40
2023-11-05T02:54:10.457Z,2.50
2023-11-05T02:57:14.099Z,2.65
2023-11-05T03:00:18.535Z,2.50
2023-11-05T03:03:22.370Z,2.25
2023-11-05T03:06:26.612Z,2.30
2023-11-05T03:09:31.649Z,2.33
2023-11-05T03:12:36.225Z,2.40
2023-11-05T03:15:39.973Z,1.98
2023-11-05T03:18:43.981Z,2.33
2023-11-05T03:21:47.626Z,2.38
2023-11-05T03:24:52.585Z,2.05
2023-11-05T03:27:56.365Z,2.40
2023-11-05T03:31:00.062Z,2.10
2023-11-05T03:34:05.046Z,2.15
2023-11-05T03:37:08.813Z,1.90
2023-11-05T03:40:14.946Z,2.33
2023-11-05T03:43:18.686Z,2.17
2023-11-05T03:46:23.767Z,2.03
2023-11-05T03:49:27.433Z,1.90
2023-11-05T03:52:31.210Z,1.67
2023-11-05T03:55:36.667Z,2.03
2023-11-05T03:58:40.869Z,1.80
2023-11-05T04:01:44.597Z,1.77
2023-11-05T04:04:49.787Z,1.60
2023-11-05T04:07:54.517Z,1.70
2023-11-05T04:10:59.610Z,1.80
2023-11-05T04:14:03.585Z,2.05
2023-11-05T04:17:07.488Z,1.90
2023-11-05T04:20:11.427Z,1.60
2023-11-05T04:23:15.059Z,1.80
2023-11-05T04:26:20.060Z,1.80
2023-11-05T04:29:23.808Z,2.00
2023-11-05T04:32:27.937Z,2.00
2023-11-05T04:35:32.144Z,2.00
2023-11-05T04:38:37.691Z,2.08
2023-11-05T04:41:42.805Z,2.00
2023-11-05T04:44:46.725Z,1.90
2023-11-05T04:47:50.525Z,2.00
2023-11-05T04:50:54.312Z,2.00
2023-11-05T04:53:57.972Z,1.90
2023-11-05T04:57:03.317Z,1.85
2023-11-05T05:00:09.883Z,1.85
2023-11-05T05:03:13.566Z,1.70
2023-11-05T05:06:17.298Z,1.75
2023-11-05T05:09:20.951Z,2.08
2023-11-05T05:12:26.041Z,1.90
2023-11-05T05:15:29.817Z,2.10
2023-11-05T05:18:33.620Z,2.25
2023-11-05T05:21:44.190Z,1.98
2023-11-05T05:24:47.861Z,1.88
2023-11-05T05:27:52.889Z,2.20
2023-11-05T05:30:56.585Z,2.00
2023-11-05T05:34:00.935Z,2.20
2023-11-05T05:37:04.563Z,2.13
2023-11-05T05:40:10.306Z,2.20
2023-11-05T05:43:15.450Z,1.88
2023-11-05T05:46:19.478Z,1.98
2023-11-05T05:49:23.597Z,2.00
2023-11-05T05:52:27.263Z,2.13
2023-11-05T05:55:31.097Z,1.85
2023-11-05T05:58:36.520Z,2.65
2023-11-05T06:01:40.255Z,2.17
2023-11-05T06:04:43.969Z,2.25
2023-11-05T06:07:47.710Z,2.28
2023-11-05T06:10:51.693Z,2.17
2023-11-05T06:13:56.702Z,2.15
2023-11-05T06:17:00.439Z,2.60
2023-11-05T06:20:06.675Z,2.47
2023-11-05T06:23:10.421Z,2.40
2023-11-05T06:26:14.056Z,2.30
2023-11-05T06:29:19.061Z,2.20
2023-11-05T06:32:22.814Z,2.30
2023-11-05T06:35:26.460Z,2.47
2023-11-05T06:38:30.099Z,2.50
2023-11-05T06:41:33.731Z,2.58
2023-11-05T06:44:38.746Z,2.40
2023-11-05T06:47:43.669Z,2.40
2023-11-05T06:50:48.307Z,2.60
2023-11-05T06:53:52.071Z,2.53
2023-11-05T06:56:55.820Z,2.40
2023-11-05T07:00:01.271Z,2.78
2023-11-05T07:03:05.027Z,2.50
2023-11-05T07:06:08.965Z,2.47
2023-11-05T07:09:12.694Z,2.28
2023-11-05T07:12:19.134Z,2.78
2023-11-05T07:15:24.265Z,2.38
2023-11-05T07:18:28.103Z,2.10
2023-11-05T07:21:33.055Z,2.70
2023-11-05T07:24:37.223Z,2.63
2023-11-05T07:27:40.886Z,2.70
2023-11-05T07:30:46.046Z,2.40
2023-11-05T07:33:49.916Z,2.67
2023-11-05T07:36:53.893Z,2.90
2023-11-05T07:39:58.076Z,2.30
2023-11-05T07:43:01.863Z,2.67
2023-11-05T07:46:07.357Z,2.78
2023-11-05T07:49:12.147Z,2.60
2023-11-05T07:52:15.974Z,2.72
2023-11-05T07:55:19.694Z,2.78
2023-11-05T07:58:23.463Z,2.80
2023-11-05T08:01:29.806Z,2.78
2023-11-05T08:04:33.494Z,3.38
2023-11-05T08:07:37.281Z,3.00
2023-11-05T08:10:41.034Z,2.95
2023-11-05T08:13:45.618Z,3.10
2023-11-05T08:16:51.697Z,2.90
2023-11-05T08:19:55.711Z,3.58
2023-11-05T08:22:59.435Z,4.10
2023-11-05T08:26:03.396Z,4.25
2023-11-05T08:29:07.165Z,3.53
2023-11-05T08:32:12.303Z,3.53
2023-11-05T08:35:17.179Z,3.50
2023-11-05T08:38:21.124Z,3.47
2023-11-05T08:41:25.065Z,4.13
2023-11-05T08:44:28.700Z,4.25
2023-11-05T08:47:33.951Z,4.63
2023-11-05T08:50:37.935Z,4.57
2023-11-05T08:53:41.607Z,4.70
2023-11-05T08:56:45.230Z,3.85
2023-11-05T08:59:48.927Z,4.72
2023-11-05T09:02:54.578Z,5.22
2023-11-05T09:05:58.248Z,5.03
2023-11-05T09:09:01.868Z,4.50
2023-11-05T09:12:09.195Z,4.68
2023-11-05T09:15:13.100Z,4.60
2023-11-05T09:18:18.520Z,4.60
2023-11-05T09:21:22.324Z,4.70
2023-11-05T09:24:28.973Z,4.65
2023-11-05T09:27:32.698Z,4.90
2023-11-05T09:30:36.517Z,4.63
2023-11-05T09:33:41.564Z,4.50
2023-11-05T09:36:45.925Z,5.30
2023-11-05T09:39:49.991Z,4.90
2023-11-05T09:43:00.008Z,5.53
2023-11-05T09:46:05.678Z,5.00
2023-11-05T09:49:10.704Z,5.95
2023-11-05T09:52:14.738Z,5.82
2023-11-05T09:55:19.106Z,5.97
2023-11-05T09:58:23.512Z,6.10
2023-11-05T10:01:29.767Z,6.25
2023-11-05T10:04:36.263Z,6.00
2023-11-05T10:07:40.121Z,5.75
2023-11-05T10:10:46.071Z,6.18
2023-11-05T10:13:52.393Z,6.10
2023-11-05T10:16:56.392Z,5.47
2023-11-05T10:20:01.538Z,5.53
2023-11-05T10:23:06.086Z,5.60
2023-11-05T10:26:09.857Z,5.22
2023-11-05T10:29:15.018Z,5.45
2023-11-05T10:32:18.633Z,5.90
2023-11-05T10:35:28.885Z,5.40
2023-11-05T10:38:34.675Z,5.35
2023-11-05T10:41:38.454Z,5.20
2023-11-05T10:44:43.617Z,4.53
2023-11-05T10:47:47.958Z,6.22
2023-11-05T10:50:54.862Z,5.47
2023-11-05T10:53:59.361Z,4.90
2023-11-05T10:57:03.011Z,5.43
2023-11-05T11:00:12.248Z,4.60
2023-11-05T11:03:16.182Z,5.07
2023-11-05T11:06:21.388Z,4.88
2023-11-05T11:09:28.335Z,4.95
2023-11-05T11:12:32.734Z,4.80
2023-11-05T11:15:38.734Z,5.03
2023-11-05T11:18:43.583Z,5.00
2023-11-05T11:21:52.586Z,5.10
2023-11-05T11:24:56.514Z,5.35
2023-11-05T11:28:01.782Z,4.75
2023-11-05T11:31:06.100Z,4.75
2023-11-05T11:34:09.725Z,4.40
2023-11-05T11:37:16.969Z,5.10
2023-11-05T11:40:22.419Z,4.80
2023-11-05T11:43:27.043Z,5.03
2023-11-05T11:46:30.685Z,5.22
2023-11-05T11:49:35.180Z,5.00
2023-11-05T11:52:49.362Z,5.25
2023-11-05T11:55:53.728Z,4.95
2023-11-05T11:58:58.727Z,5.03
2023-11-05T12:02:04.097Z,4.80
2023-11-05T12:05:09.086Z,5.00
2023-11-05T12:08:14.505Z,5.05
2023-11-05T12:11:19.006Z,5.30
2023-11-05T12:14:23.635Z,5.00
2023-11-05T12:17:27.516Z,5.30
2023-11-05T12:20:32.257Z,4.63
2023-11-05T12:23:37.574Z,4.80
2023-11-05T12:26:42.248Z,4.43
2023-11-05T12:29:46.799Z,3.97
2023-11-05T12:32:51.918Z,4.63
2023-11-05T12:35:56.926Z,4.20
2023-11-05T12:39:02.018Z,4.55
2023-11-05T12:42:08.007Z,4.60
2023-11-05T12:45:12.193Z,5.07
2023-11-05T12:48:16.076Z,4.82
2023-11-05T12:51:19.734Z,4.85
2023-11-05T12:54:26.132Z,5.00
2023-11-05T12:57:30.257Z,4.55
2023-11-05T13:00:33.958Z,4.43
2023-11-05T13:03:38.049Z,4.60
2023-11-05T13:06:43.209Z,4.25
2023-11-05T13:09:48.403Z,4.68
2023-11-05T13:12:52.106Z,4.20
2023-11-05T13:15:55.964Z,4.40
2023-11-05T13:19:00.263Z,4.18
2023-11-05T13:22:04.983Z,4.60
2023-11-05T13:25:11.070Z,4.60
2023-11-05T13:28:14.904Z,4.82
2023-11-05T13:31:20.926Z,5.05
2023-11-05T13:34:25.399Z,4.35
2023-11-05T13:37:29.170Z,4.13
2023-11-05T13:40:34.183Z,4.43
2023-11-05T13:43:37.865Z,4.10
2023-11-05T13:46:41.721Z,4.30
2023-11-05T13:49:45.594Z,4.18
2023-11-05T13:52:49.491Z,4.03
2023-11-05T13:55:54.691Z,3.88
2023-11-05T13:58:58.651Z,3.72
2023-11-05T14:02:02.470Z,4.03
2023-11-05T14:05:06.652Z,4.30
2023-11-05T14:08:11.336Z,4.05
2023-11-05T14:11:16.434Z,4.47
2023-11-05T14:14:20.160Z,4.10
2023-11-05T14:17:23.922Z,4.00
2023-11-05T14:20:27.585Z,4.07
2023-11-05T14:23:31.249Z,3.92
2023-11-05T14:26:36.375Z,4.30
2023-11-05T14:29:40.021Z,4.30
2023-11-05T14:32:43.918Z,4.63
2023-11-05T14:35:47.923Z,4.30
2023-11-05T14:38:51.630Z,4.32
2023-11-05T14:41:56.682Z,4.45
2023-11-05T14:45:01.954Z,4.55
2023-11-05T14:48:07.258Z,4.20
2023-11-05T14:51:11.536Z,4.30
2023-11-05T14:54:15.500Z,4.40
2023-11-05T14:57:20.545Z,4.55
2023-11-05T15:00:24.507Z,4.25
2023-11-05T15:03:28.269Z,4.13
2023-11-05T15:06:32.040Z,4.10
2023-11-05T15:09:36.272Z,4.45
2023-11-05T15:12:41.463Z,4.63
2023-11-05T15:15:46.674Z,4.72
2023-11-05T15:18:51.109Z,4.20
2023-11-05T15:21:54.780Z,4.35
2023-11-05T15:24:59.418Z,4.63
2023-11-05T15:28:04.563Z,3.90
2023-11-05T15:31:11.230Z,3.88
2023-11-05T15:34:15.385Z,4.30
2023-11-05T15:37:19.352Z,4.22
2023-11-05T15:40:23.142Z,4.32
2023-11-05T15:43:28.292Z,4.25
2023-11-05T15:46:31.928Z,4.70
2023-11-05T15:49:35.563Z,4.30
2023-11-05T15:52:39.804Z,4.03
2023-11-05T15:55:43.988Z,4.32
2023-11-05T15:58:49.017Z,3.90
2023-11-05T16:01:53.695Z,3.60
2023-11-05T16:04:57.598Z,4.22
2023-11-05T16:08:01.481Z,3.67
2023-11-05T16:11:06.521Z,3.75
2023-11-05T16:14:11.612Z,3.85
2023-11-05T16:17:15.706Z,3.47
2023-11-05T16:20:19.490Z,3.65
2023-11-05T16:23:23.233Z,3.80
2023-11-05T16:26:27.027Z,4.00
2023-11-05T16:29:32.249Z,3.95
2023-11-05T16:32:36.727Z,3.70
2023-11-05T16:35:40.380Z,3.20
2023-11-05T16:38:43.978Z,3.78
2023-11-05T16:41:47.655Z,3.45
2023-11-05T16:44:52.674Z,4.05
2023-11-05T16:47:56.446Z,3.22
2023-11-05T16:51:00.896Z,3.88
2023-11-05T16:54:05.166Z,3.33
2023-11-05T16:57:09.164Z,3.42
2023-11-05T17:00:17.507Z,3.40
2023-11-05T17:03:23.273Z,3.22
2023-11-05T17:06:28.255Z,2.95
2023-11-05T17:09:32.292Z,3.30
2023-11-05T17:12:35.942Z,3.47
2023-11-05T17:15:41.585Z,2.83
2023-11-05T17:18:45.431Z,3.08
2023-11-05T17:21:49.542Z,2.85
2023-11-05T17:24:53.267Z,3.13
2023-11-05T17:27:57.086Z,3.08
2023-11-05T17:31:02.671Z,2.88
2023-11-05T17:34:07.636Z,2.97
2023-11-05T17:37:11.684Z,3.30
2023-11-05T17:40:15.835Z,3.03
2023-11-05T17:43:19.850Z,3.08
2023-11-05T17:46:25.103Z,2.60
2023-11-05T17:49:29.000Z,3.35
2023-11-05T17:52:37.474Z,3.30
2023-11-05T17:55:45.048Z,3.25
2023-11-05T17:58:49.705Z,3.15
2023-11-05T18:01:56.653Z,3.30
2023-11-05T18:05:00.700Z,3.45
2023-11-05T18:08:04.778Z,3.40
2023-11-05T18:11:08.854Z,3.30
2023-11-05T18:14:12.665Z,3.42
2023-11-05T18:17:17.725Z,2.70
2023-11-05T18:20:21.763Z,3.38
2023-11-05T18:23:25.754Z,3.17
2023-11-05T18:26:29.474Z,2.83
2023-11-05T18:29:33.315Z,3.42
2023-11-05T18:32:38.437Z,2.83
2023-11-05T18:35:42.327Z,2.85
2023-11-05T18:38:46.017Z,2.65
2023-11-05T18:41:49.747Z,3.50
2023-11-05T18:44:53.994Z,3.42
2023-11-05T18:47:59.131Z,3.22
2023-11-05T18:51:02.918Z,3.05
2023-11-05T18:54:06.628Z,3.17
2023-11-05T18:57:13.555Z,3.38
2023-11-05T19:00:18.068Z,2.90
2023-11-05T19:03:23.681Z,3.15
2023-11-05T19:06:27.381Z,3.10
2023-11-05T19:09:31.135Z,2.88
2023-11-05T19:12:34.982Z,3.88
2023-11-05T19:15:38.845Z,3.35
2023-11-05T19:18:43.938Z,3.10
2023-11-05T19:21:48.661Z,3.10
2023-11-05T19:24:52.617Z,3.47
2023-11-05T19:27:56.370Z,3.60
2023-11-05T19:31:01.965Z,3.15
2023-11-05T19:34:07.470Z,3.45
2023-11-05T19:37:11.278Z,3.35
2023-11-05T19:40:15.352Z,3.05
2023-11-05T19:43:18.980Z,3.45
2023-11-05T19:46:23.310Z,3.47
2023-11-05T19:49:28.838Z,3.88
2023-11-05T19:52:32.606Z,3.50
2023-11-05T19:55:57.290Z,3.10
2023-11-05T19:59:01.622Z,3.50
2023-11-05T20:02:14.631Z,3.33
2023-11-05T20:05:25.091Z,2.90
2023-11-05T20:08:28.854Z,3.00
2023-11-05T20:11:32.652Z,2.97
2023-11-05T20:14:36.829Z,3.30
2023-11-05T20:17:41.473Z,3.50
2023-11-05T20:20:46.486Z,3.22
2023-11-05T20:23:50.134Z,2.95
2023-11-05T20:26:53.840Z,2.92
2023-11-05T20:29:57.661Z,3.45
2023-11-05T20:33:01.450Z,3.00
2023-11-05T20:36:07.664Z,2.78
2023-11-05T20:39:11.368Z,3.47
2023-11-05T20:42:15.762Z,3.50
2023-11-05T20:45:20.081Z,3.45
2023-11-05T20:48:23.965Z,3.25
2023-11-05T20:51:30.166Z,3.80
2023-11-05T20:54:37.937Z,4.05
2023-11-05T20:57:42.689Z,3.60
2023-11-05T21:00:46.392Z,3.65
2023-11-05T21:03:50.300Z,3.50
2023-11-05T21:06:55.500Z,3.35
2023-11-05T21:09:59.145Z,3.00
2023-11-05T21:13:02.921Z,3.28
2023-11-05T21:16:07.920Z,3.30
2023-11-05T21:19:11.637Z,3.75
2023-11-05T21:22:16.700Z,3.55
2023-11-05T21:25:20.317Z,3.33
2023-11-05T21:28:24.144Z,3.95
2023-11-05T21:31:27.865Z,3.85
2023-11-05T21:34:31.468Z,3.65
2023-11-05T21:37:36.529Z,3.88
2023-11-05T21:40:40.477Z,4.35
2023-11-05T21:43:44.254Z,3.90
2023-11-05T21:46:47.941Z,3.53
2023-11-05T21:49:52.401Z,3.65
2023-11-05T21:52:57.778Z,3.92
2023-11-05T21:56:01.640Z,3.92
2023-11-05T21:59:05.362Z,4.18
2023-11-05T22:02:09.631Z,3.58
2023-11-05T22:05:13.862Z,3.72
2023-11-05T22:08:19.057Z,3.75
2023-11-05T22:11:22.667Z,3.90
2023-11-05T22:14:27.997Z,3.97
2023-11-05T22:17:32.072Z,4.10
2023-11-05T22:20:37.685Z,4.13
2023-11-05T22:23:43.597Z,3.72
2023-11-05T22:26:47.324Z,3.83
2023-11-05T22:29:51.365Z,4.10
2023-11-05T22:32:55.114Z,4.15
2023-11-05T22:35:58.885Z,3.70
2023-11-05T22:39:04.876Z,4.18
2023-11-05T22:42:08.597Z,4.00
2023-11-05T22:45:12.543Z,4.10
2023-11-05T22:48:16.228Z,3.88
2023-11-05T22:51:22.192Z,4.15
2023-11-05T22:54:27.392Z,4.00
2023-11-05T22:57:31.105Z,3.80
2023-11-05T23:00:43.966Z,4.10
2023-11-05T23:03:55.560Z,4.10
2023-11-05T23:06:59.620Z,4.32
2023-11-05T23:10:05.522Z,4.53
2023-11-05T23:13:09.512Z,4.40
2023-11-05T23:16:13.205Z,3.80
2023-11-05T23:19:18.363Z,4.00
2023-11-05T23:22:23.149Z,4.13
2023-11-05T23:25:35.075Z,4.03
2023-11-05T23:28:42.249Z,4.10
2023-11-05T23:31:46.004Z,4.18
2023-11-05T23:34:50.226Z,4.00
2023-11-05T23:37:54.290Z,3.83
2023-11-05T23:40:59.372Z,4.43
2023-11-05T23:44:03.171Z,3.90
2023-11-05T23:47:07.538Z,4.07
2023-11-05T23:50:12.269Z,4.10
2023-11-05T23:53:15.988Z,4.10
2023-11-05T23:56:21.041Z,4.30
2023-11-05T23:59:24.898Z,4.15
